TimeCDT,TemperatureF,Dew PointF,Humidity,Sea Level PressureIn,VisibilityMPH,Wind Direction,Wind SpeedMPH,Gust SpeedMPH,PrecipitationIn,Events,Conditions,WindDirDegrees,DateUTC
12:15 AM,80.2,71.6,75,29.95,10.0,South,3.5,-,N/A,,Clear,190,2013-07-20 05:15:00
12:35 AM,79.9,71.6,76,29.95,10.0,South,3.5,-,N/A,,Clear,180,2013-07-20 05:35:00
12:55 AM,79.0,71.1,77,29.95,10.0,South,4.6,-,N/A,,Clear,190,2013-07-20 05:55:00
1:15 AM,79.0,71.2,77,29.95,10.0,South,4.6,-,N/A,,Clear,170,2013-07-20 06:15:00
1:35 AM,78.8,71.2,78,29.95,10.0,SSW,3.5,-,N/A,,Clear,200,2013-07-20 06:35:00
1:55 AM,78.8,71.4,78,29.94,10.0,South,3.5,-,N/A,,Clear,190,2013-07-20 06:55:00
2:15 AM,78.6,71.4,78,29.94,10.0,South,3.5,-,N/A,,Clear,170,2013-07-20 07:15:00
2:35 AM,77.9,71.1,79,29.94,10.0,Calm,Calm,-,N/A,,Clear,0,2013-07-20 07:35:00
2:55 AM,76.8,70.9,82,29.93,10.0,Calm,Calm,-,N/A,,Clear,0,2013-07-20 07:55:00
3:15 AM,76.1,70.3,82,29.93,10.0,Calm,Calm,-,N/A,,Clear,0,2013-07-20 08:15:00
3:35 AM,76.1,71.4,85,29.93,10.0,South,3.5,-,N/A,,Clear,180,2013-07-20 08:35:00
3:55 AM,76.5,71.6,85,29.93,10.0,Calm,Calm,-,N/A,,Clear,0,2013-07-20 08:55:00
4:15 AM,77.0,72.0,84,29.93,10.0,SSW,3.5,-,N/A,,Clear,210,2013-07-20 09:15:00
4:35 AM,77.2,72.1,84,29.94,10.0,SSW,5.8,-,N/A,,Clear,200,2013-07-20 09:35:00
4:55 AM,77.0,71.8,84,29.93,10.0,SSW,3.5,-,N/A,,Clear,200,2013-07-20 09:55:00
5:15 AM,77.2,72.0,84,29.94,10.0,SSW,5.8,-,N/A,,Clear,210,2013-07-20 10:15:00
5:35 AM,77.7,71.6,81,29.94,10.0,South,5.8,-,N/A,,Clear,190,2013-07-20 10:35:00
5:55 AM,77.4,71.1,81,29.95,10.0,SSW,4.6,-,N/A,,Clear,200,2013-07-20 10:55:00
6:15 AM,77.9,71.2,80,29.95,10.0,South,5.8,-,N/A,,Scattered Clouds,190,2013-07-20 11:15:00
6:35 AM,77.9,71.2,80,29.95,10.0,SSW,4.6,-,N/A,,Scattered Clouds,200,2013-07-20 11:35:00
6:55 AM,78.1,71.6,80,29.95,10.0,SSW,5.8,-,N/A,,Clear,200,2013-07-20 11:55:00
7:15 AM,78.8,72.0,79,29.94,10.0,South,5.8,-,N/A,,Clear,190,2013-07-20 12:15:00
7:35 AM,79.7,72.1,78,29.94,10.0,SSW,5.8,-,N/A,,Clear,200,2013-07-20 12:35:00
7:55 AM,80.6,72.1,75,29.94,10.0,SSW,6.9,-,N/A,,Clear,200,2013-07-20 12:55:00
8:15 AM,81.5,72.5,74,29.94,10.0,SSW,8.1,-,N/A,,Clear,210,2013-07-20 13:15:00
8:35 AM,82.0,72.5,73,29.94,10.0,SSW,9.2,-,N/A,,Clear,210,2013-07-20 13:35:00
8:55 AM,82.6,73.2,73,29.94,10.0,SW,8.1,-,N/A,,Clear,220,2013-07-20 13:55:00
9:15 AM,83.5,73.4,72,29.94,10.0,SW,5.8,-,N/A,,Clear,230,2013-07-20 14:15:00
9:35 AM,84.2,73.6,70,29.94,10.0,SW,5.8,-,N/A,,Clear,220,2013-07-20 14:35:00
9:55 AM,85.1,73.6,68,29.94,10.0,South,8.1,-,N/A,,Clear,190,2013-07-20 14:55:00
10:15 AM,86.0,74.3,68,29.94,10.0,SSW,9.2,-,N/A,,Scattered Clouds,200,2013-07-20 15:15:00
10:35 AM,86.9,73.9,65,29.94,10.0,SSW,9.2,-,N/A,,Scattered Clouds,200,2013-07-20 15:35:00
10:55 AM,87.4,74.1,64,29.94,10.0,SSW,9.2,-,N/A,,Scattered Clouds,200,2013-07-20 15:55:00
11:15 AM,88.0,74.1,63,29.93,10.0,South,9.2,-,N/A,,Scattered Clouds,190,2013-07-20 16:15:00
11:35 AM,88.5,72.7,59,29.93,10.0,South,9.2,-,N/A,,Scattered Clouds,180,2013-07-20 16:35:00
11:55 AM,89.1,71.8,57,29.93,10.0,SSW,10.4,16.1,N/A,,Scattered Clouds,210,2013-07-20 16:55:00
12:15 PM,89.6,73.4,59,29.92,10.0,SSW,9.2,-,N/A,,Clear,210,2013-07-20 17:15:00
12:35 PM,90.5,72.3,55,29.92,10.0,South,9.2,-,N/A,,Clear,190,2013-07-20 17:35:00
12:55 PM,91.4,72.0,53,29.92,10.0,South,10.4,-,N/A,,Clear,180,2013-07-20 17:55:00
1:15 PM,91.4,71.6,52,29.92,10.0,SSW,6.9,-,N/A,,Scattered Clouds,210,2013-07-20 18:15:00
1:35 PM,91.4,73.0,55,29.91,10.0,South,5.8,-,N/A,,Scattered Clouds,190,2013-07-20 18:35:00
1:55 PM,91.8,71.2,51,29.91,10.0,South,8.1,-,N/A,,Scattered Clouds,190,2013-07-20 18:55:00
2:15 PM,91.9,71.6,51,29.90,10.0,South,6.9,-,N/A,,Scattered Clouds,190,2013-07-20 19:15:00
2:35 PM,92.5,71.1,49,29.89,10.0,SSW,6.9,-,N/A,,Clear,210,2013-07-20 19:35:00
2:55 PM,92.7,72.0,51,29.87,10.0,SSW,8.1,-,N/A,,Clear,200,2013-07-20 19:55:00
3:15 PM,93.4,70.9,48,29.86,10.0,SSW,9.2,-,N/A,,Clear,200,2013-07-20 20:15:00
3:35 PM,93.4,70.0,46,29.84,10.0,SSE,11.5,-,N/A,,Scattered Clouds,160,2013-07-20 20:35:00
3:55 PM,93.2,70.9,48,29.83,10.0,SSW,8.1,-,N/A,,Scattered Clouds,200,2013-07-20 20:55:00
4:15 PM,93.2,69.4,46,29.82,10.0,South,10.4,-,N/A,,Scattered Clouds,190,2013-07-20 21:15:00
4:35 PM,93.2,70.2,47,29.83,10.0,SSW,9.2,-,N/A,,Clear,200,2013-07-20 21:35:00
4:55 PM,92.8,69.3,46,29.83,10.0,SSW,6.9,10.4,N/A,,Clear,200,2013-07-20 21:55:00
5:15 PM,91.0,69.4,49,29.84,10.0,SSW,9.2,-,N/A,,Clear,200,2013-07-20 22:15:00
5:35 PM,90.1,70.5,52,29.85,10.0,SSW,5.8,-,N/A,,Scattered Clouds,200,2013-07-20 22:35:00
5:55 PM,89.6,70.7,54,29.85,10.0,SSW,8.1,-,N/A,,Clear,210,2013-07-20 22:55:00
6:15 PM,89.6,71.1,54,29.86,10.0,SSW,4.6,-,N/A,,Clear,200,2013-07-20 23:15:00
6:35 PM,89.6,70.9,54,29.86,10.0,SSW,5.8,-,N/A,,Clear,210,2013-07-20 23:35:00
6:55 PM,88.9,70.0,53,29.87,10.0,WSW,3.5,-,N/A,,Clear,240,2013-07-20 23:55:00
7:15 PM,88.3,70.0,54,29.87,10.0,Calm,Calm,-,N/A,,Clear,0,2013-07-21 00:15:00
7:35 PM,87.6,72.0,60,29.89,10.0,West,6.9,-,N/A,Thunderstorm,Thunderstorm,260,2013-07-21 00:35:00
7:55 PM,84.0,70.7,64,29.89,10.0,NNW,8.1,-,N/A,Thunderstorm,Clear,330,2013-07-21 00:55:00
8:15 PM,84.0,69.4,61,29.90,10.0,North,4.6,-,N/A,,Clear,360,2013-07-21 01:15:00
8:35 PM,82.4,70.3,67,29.91,10.0,NNE,3.5,-,N/A,,Clear,20,2013-07-21 01:35:00
8:55 PM,81.9,69.4,66,29.93,10.0,NNE,6.9,-,N/A,,Scattered Clouds,30,2013-07-21 01:55:00
9:15 PM,79.9,68.4,68,29.94,10.0,NNE,13.8,24.2,N/A,,Scattered Clouds,30,2013-07-21 02:15:00
9:35 PM,78.4,68.5,72,29.95,10.0,NNE,11.5,19.6,N/A,Thunderstorm,Scattered Clouds,30,2013-07-21 02:35:00
9:55 PM,77.9,68.2,72,29.95,10.0,NE,12.7,-,N/A,Thunderstorm,Overcast,40,2013-07-21 02:55:00
10:15 PM,77.9,68.4,72,29.95,10.0,ENE,9.2,-,N/A,,Mostly Cloudy,70,2013-07-21 03:15:00
10:35 PM,77.5,67.5,71,29.93,10.0,NE,13.8,18.4,N/A,,Scattered Clouds,50,2013-07-21 03:35:00
10:55 PM,77.0,67.3,72,29.94,10.0,East,9.2,-,N/A,,Clear,80,2013-07-21 03:55:00
11:15 PM,76.5,67.1,73,29.93,10.0,East,9.2,-,N/A,,Clear,80,2013-07-21 04:15:00
11:35 PM,76.3,67.6,74,29.92,10.0,ESE,10.4,-,N/A,,Clear,110,2013-07-21 04:35:00
11:55 PM,75.7,68.2,77,29.91,10.0,SE,10.4,-,N/A,,Clear,140,2013-07-21 04:55:00